Time;durP1;ratioP1;P1;durP2;ratioP2;P2;SDS_P1;SDS_P2;PMS_P1;PMS_P2;Temp;Humidity;BMP_temperature;BMP_pressure;BME280_temperature;BME280_humidity;BME280_pressure;Samples;Min_cycle;Max_cycle;Signal;HPM_P1;HPM_P2
2022/12/07 00:01:12;;;;;;;12.82;9.70;;;;;;;2.15;100.00;99148.31;5075115;28;20127;-81
2022/12/07 00:03:38;;;;;;;11.18;8.73;;;;;;;2.24;100.00;99163.56;5093144;28;20499;-81
2022/12/07 00:06:05;;;;;;;9.75;8.27;;;;;;;2.28;100.00;99167.75;5074860;28;20024;-81
2022/12/07 00:08:31;;;;;;;10.30;8.77;;;;;;;2.19;100.00;99153.38;5074417;28;20404;-81
2022/12/07 00:11:01;;;;;;;10.68;8.27;;;;;;;2.27;100.00;99160.06;5093092;28;20048;-81
2022/12/07 00:13:27;;;;;;;12.75;8.88;;;;;;;2.25;100.00;99163.50;5074498;28;20023;-81
2022/12/07 00:15:52;;;;;;;10.30;8.25;;;;;;;2.24;100.00;99164.41;5092930;28;20374;-81
2022/12/07 00:18:17;;;;;;;10.68;8.07;;;;;;;2.18;100.00;99149.09;5092320;28;20028;-81
2022/12/07 00:20:42;;;;;;;9.85;7.85;;;;;;;2.19;100.00;99155.94;5092763;28;20454;-81
2022/12/07 00:23:08;;;;;;;9.57;7.30;;;;;;;2.13;100.00;99135.50;5092625;28;20027;-81
2022/12/07 00:25:33;;;;;;;11.10;8.40;;;;;;;2.18;100.00;99151.66;5092726;28;20023;-81
2022/12/07 00:27:58;;;;;;;9.02;7.40;;;;;;;2.13;100.00;99142.38;5092825;28;20091;-81
2022/12/07 00:30:24;;;;;;;9.52;7.60;;;;;;;2.15;100.00;99143.16;5074408;28;20062;-81
2022/12/07 00:32:49;;;;;;;9.65;7.28;;;;;;;2.20;100.00;99155.06;5092552;28;20031;-81
2022/12/07 00:35:15;;;;;;;10.80;7.13;;;;;;;2.18;100.00;99143.09;5092203;28;20020;-81
2022/12/07 00:37:40;;;;;;;8.10;7.30;;;;;;;2.16;100.00;99144.88;5092345;28;20027;-81
2022/12/07 00:40:06;;;;;;;9.45;7.13;;;;;;;2.12;100.00;99149.22;5092685;28;20028;-81
2022/12/07 00:42:31;;;;;;;9.40;7.47;;;;;;;2.15;100.00;99156.88;5088906;28;20036;-81
2022/12/07 00:44:57;;;;;;;9.40;7.70;;;;;;;2.12;100.00;99148.38;5092424;28;20024;-81
2022/12/07 00:47:22;;;;;;;9.80;7.50;;;;;;;2.13;100.00;99150.91;5092434;28;20525;-81
2022/12/07 00:49:47;;;;;;;9.50;6.97;;;;;;;2.05;100.00;99132.25;5074247;28;20123;-81
2022/12/07 00:52:12;;;;;;;8.27;6.53;;;;;;;2.12;100.00;99148.38;5092116;28;20509;-81
2022/12/07 00:54:39;;;;;;;9.43;6.80;;;;;;;2.03;100.00;99139.16;5092163;28;20099;-81
2022/12/07 00:57:04;;;;;;;7.22;6.00;;;;;;;2.06;100.00;99141.63;5074154;28;20016;-81
2022/12/07 00:59:29;;;;;;;8.20;6.22;;;;;;;2.05;100.00;99144.25;5092212;28;20093;-81
2022/12/07 01:01:55;;;;;;;7.78;6.00;;;;;;;2.05;100.00;99142.50;5092331;28;20036;-81
2022/12/07 01:04:20;;;;;;;6.43;5.50;;;;;;;2.03;100.00;99140.88;5091858;28;20028;-81
2022/12/07 01:06:45;;;;;;;6.15;5.55;;;;;;;2.14;100.00;99162.03;5091831;28;20024;-81
2022/12/07 01:09:10;;;;;;;7.10;6.13;;;;;;;2.02;100.00;99137.44;5092077;28;20023;-81
2022/12/07 01:11:36;;;;;;;9.32;6.47;;;;;;;2.12;100.00;99151.78;5091935;28;20107;-81
2022/12/07 01:14:01;;;;;;;6.97;5.70;;;;;;;2.11;100.00;99147.53;5091974;28;20069;-81
2022/12/07 01:16:29;;;;;;;6.97;5.72;;;;;;;2.13;100.00;99158.63;5091829;28;20024;-81
2022/12/07 01:18:56;;;;;;;7.75;6.20;;;;;;;2.03;100.00;99143.44;5091843;28;20107;-81
2022/12/07 01:21:24;;;;;;;7.53;5.78;;;;;;;2.06;100.00;99148.50;5091895;28;20028;-81
2022/12/07 01:23:51;;;;;;;7.70;5.60;;;;;;;2.03;100.00;99133.16;5092143;28;20091;-81
2022/12/07 01:26:22;;;;;;;6.95;5.53;;;;;;;2.11;100.00;99152.69;5091796;28;20540;-81
2022/12/07 01:28:47;;;;;;;;;;;;;;;2.10;100.00;99158.66;5092418;28;20115;-81
2022/12/07 01:31:15;;;;;;;5.65;5.05;;;;;;;2.03;100.00;99138.31;5094704;28;20361;-81
2022/12/07 01:33:42;;;;;;;6.65;4.80;;;;;;;2.03;100.00;99133.16;5095796;28;20165;-81
2022/12/07 01:36:12;;;;;;;5.28;4.68;;;;;;;2.11;100.00;99150.13;5095885;28;20031;-81
2022/12/07 01:38:38;;;;;;;6.30;5.45;;;;;;;2.06;100.00;99135.66;5095957;28;20375;-81
2022/12/07 01:41:03;;;;;;;5.88;4.97;;;;;;;2.11;100.00;99144.13;5095889;28;20020;-81
2022/12/07 01:43:32;;;;;;;5.22;4.35;;;;;;;2.07;100.00;99137.38;5077514;28;20375;-81
2022/12/07 01:45:58;;;;;;;4.97;4.47;;;;;;;2.04;100.00;99137.41;5095848;28;20108;-81
2022/12/07 01:48:37;;;;;;;5.60;4.90;;;;;;;2.00;100.00;99134.91;5095380;28;20047;-81
2022/12/07 01:51:11;;;;;;;5.85;4.65;;;;;;;2.03;100.00;99144.28;5077611;28;20505;-81
2022/12/07 01:53:39;;;;;;;5.15;4.65;;;;;;;2.02;100.00;99136.59;5095384;28;20027;-81
2022/12/07 01:56:08;;;;;;;5.03;4.18;;;;;;;2.03;100.00;99139.16;5095880;28;20031;-81
2022/12/07 01:58:33;;;;;;;4.68;4.18;;;;;;;2.02;100.00;99141.72;5095122;28;20033;-81
2022/12/07 02:00:58;;;;;;;5.03;4.05;;;;;;;2.03;100.00;99144.28;5095123;28;20048;-81
2022/12/07 02:03:31;;;;;;;4.30;3.90;;;;;;;1.96;100.00;99130.69;5095423;28;20107;-81
2022/12/07 02:05:57;;;;;;;5.40;4.20;;;;;;;2.00;100.00;99139.19;5095473;28;20056;-81
2022/12/07 02:08:22;;;;;;;4.97;4.32;;;;;;;1.99;100.00;99140.94;5095153;28;20564;-81
2022/12/07 02:10:47;;;;;;;4.80;3.78;;;;;;;1.99;100.00;99140.94;5095299;28;20115;-81
2022/12/07 02:13:18;;;;;;;6.00;4.65;;;;;;;1.92;100.00;99120.53;5095106;28;20097;-81
2022/12/07 02:16:01;;;;;;;4.32;3.83;;;;;;;2.02;100.00;99144.28;5094788;28;20032;-81
2022/12/07 02:18:29;;;;;;;4.90;4.05;;;;;;;2.04;100.00;99145.13;5095294;28;20028;-81
2022/12/07 02:20:58;;;;;;;4.53;3.78;;;;;;;2.04;100.00;99138.25;5095360;28;20032;-81
2022/12/07 02:23:45;;;;;;;4.57;3.75;;;;;;;2.05;100.00;99141.66;5076594;28;20101;-81
2022/12/07 02:26:40;;;;;;;4.53;3.78;;;;;;;2.04;100.00;99143.41;5094799;28;20141;-81
2022/12/07 02:29:33;;;;;;;5.38;4.13;;;;;;;2.01;100.00;99135.75;5094871;28;20016;-81
2022/12/07 02:32:13;;;;;;;4.20;3.67;;;;;;;1.97;100.00;99131.53;5094778;28;20372;-81
2022/12/07 02:34:52;;;;;;;4.57;3.72;;;;;;;1.91;100.00;99129.97;5094685;28;20020;-81
2022/12/07 02:37:21;;;;;;;4.90;3.40;;;;;;;1.97;100.00;99142.66;5095094;28;20031;-81
2022/12/07 02:39:53;;;;;;;4.18;3.70;;;;;;;1.99;100.00;99142.66;5076463;28;20467;-81
2022/12/07 02:42:26;;;;;;;4.18;3.50;;;;;;;1.95;100.00;99134.16;5094836;28;20028;-81
2022/12/07 02:44:52;;;;;;;4.30;3.88;;;;;;;1.95;100.00;99131.59;5094772;28;20072;-81
2022/12/07 02:47:21;;;;;;;3.88;3.30;;;;;;;1.89;100.00;99116.28;5076569;28;20020;-81
2022/12/07 02:49:47;;;;;;;5.55;3.88;;;;;;;1.90;100.00;99119.72;5094725;28;20074;-81
2022/12/07 02:52:13;;;;;;;4.88;3.40;;;;;;;1.91;100.00;99118.84;5076432;28;20059;-81
2022/12/07 02:54:38;;;;;;;3.95;3.40;;;;;;;1.86;100.00;99110.41;5094258;28;20058;-81
2022/12/07 02:57:06;;;;;;;3.42;3.13;;;;;;;1.98;100.00;99135.81;5031658;28;20120;-81
2022/12/07 03:00:05;;;;;;;3.25;2.95;;;;;;;1.98;100.00;99135.81;5031555;28;20029;-81
2022/12/07 03:02:45;;;;;;;3.47;3.10;;;;;;;1.96;100.00;99135.00;5031190;28;20293;-81
2022/12/07 03:05:32;;;;;;;3.20;2.90;;;;;;;1.94;100.00;99124.78;5031736;28;20057;-81
2022/12/07 03:08:21;;;;;;;5.32;4.10;;;;;;;1.96;100.00;99129.88;5031649;28;20120;-81
2022/12/07 03:10:58;;;;;;;3.28;2.83;;;;;;;1.96;100.00;99124.72;5031360;28;20048;-81
2022/12/07 03:13:47;;;;;;;3.83;3.30;;;;;;;1.97;100.00;99132.38;5031329;28;20025;-81
2022/12/07 03:16:20;;;;;;;3.95;3.10;;;;;;;1.93;100.00;99123.06;5031485;28;20443;-81
2022/12/07 03:18:51;;;;;;;3.85;3.15;;;;;;;1.95;100.00;99135.88;5031197;28;20491;-81
2022/12/07 03:21:22;;;;;;;3.53;3.13;;;;;;;1.92;100.00;99123.09;5031367;28;20029;-81
2022/12/07 03:23:53;;;;;;;3.30;3.00;;;;;;;1.89;100.00;99131.69;5030995;28;20052;-81
2022/12/07 03:26:21;;;;;;;3.47;3.15;;;;;;;1.89;100.00;99128.28;5031013;28;20108;-81
2022/12/07 03:28:52;;;;;;;3.20;2.80;;;;;;;1.81;100.00;99115.59;5030720;28;20579;-81
2022/12/07 03:31:21;;;;;;;;;;;;;;;1.86;100.00;99123.22;5031793;28;20068;-81
2022/12/07 03:34:06;;;;;;;3.92;3.10;;;;;;;1.74;100.00;99109.75;5039145;28;19908;-81
2022/12/07 03:36:39;;;;;;;3.15;2.85;;;;;;;1.78;100.00;99112.25;5073134;28;20017;-81
2022/12/07 03:39:22;;;;;;;3.35;2.83;;;;;;;1.69;100.00;99095.31;5073484;28;20025;-81
2022/12/07 03:41:48;;;;;;;3.00;2.63;;;;;;;1.71;100.00;99102.09;5073260;28;20032;-81
2022/12/07 03:44:15;;;;;;;3.50;2.83;;;;;;;1.73;100.00;99102.09;5073347;28;20206;-81
2022/12/07 03:46:56;;;;;;;3.42;2.72;;;;;;;1.75;100.00;99106.28;5072994;28;20025;-81
2022/12/07 03:49:31;;;;;;;2.50;2.30;;;;;;;1.65;100.00;99086.81;5073079;28;20127;-81
2022/12/07 03:52:04;;;;;;;2.72;2.53;;;;;;;1.69;100.00;99091.03;5073099;28;20024;-81
2022/12/07 03:54:36;;;;;;;2.47;2.20;;;;;;;1.74;100.00;99109.75;5071022;28;20027;-81
2022/12/07 03:57:04;;;;;;;3.35;2.67;;;;;;;1.67;100.00;99107.31;5071617;28;20020;-81
2022/12/07 03:59:30;;;;;;;3.95;2.25;;;;;;;1.69;100.00;99108.16;5072897;28;20016;-81
2022/12/07 04:02:01;;;;;;;2.35;2.15;;;;;;;1.63;100.00;99101.41;5083685;28;20048;-81
2022/12/07 04:04:27;;;;;;;2.50;2.28;;;;;;;1.64;100.00;99107.38;5093049;28;20032;-81
2022/12/07 04:06:53;;;;;;;3.95;2.83;;;;;;;1.58;100.00;99097.25;5093295;28;20012;-81
2022/12/07 04:09:19;;;;;;;2.40;2.20;;;;;;;1.63;100.00;99106.53;5093163;28;20112;-81
2022/12/07 04:11:44;;;;;;;2.78;2.50;;;;;;;1.62;100.00;99112.53;5092623;28;20463;-81
2022/12/07 04:14:19;;;;;;;2.60;2.40;;;;;;;1.63;100.00;99103.97;5092870;28;20040;-81
2022/12/07 04:16:53;;;;;;;2.80;2.45;;;;;;;1.58;100.00;99094.66;5092829;28;20429;-81
2022/12/07 04:19:21;;;;;;;3.67;3.38;;;;;;;1.64;100.00;99107.38;5093014;28;20111;-81
2022/12/07 04:21:47;;;;;;;2.80;2.60;;;;;;;1.61;100.00;99103.16;5092634;28;20460;-81
2022/12/07 04:24:14;;;;;;;3.53;2.67;;;;;;;1.55;100.00;99098.13;5092699;28;20031;-81
2022/12/07 04:26:40;;;;;;;2.70;2.50;;;;;;;1.54;100.00;99098.16;5092404;28;20344;-81
2022/12/07 04:29:06;;;;;;;2.83;2.60;;;;;;;1.54;100.00;99103.31;5092570;28;20053;-81
2022/12/07 04:31:31;;;;;;;2.60;2.40;;;;;;;1.58;100.00;99110.91;5092716;28;20048;-81
2022/12/07 04:33:56;;;;;;;2.45;2.25;;;;;;;1.49;100.00;99090.56;5092742;28;20020;-81
2022/12/07 04:36:21;;;;;;;2.72;2.47;;;;;;;1.55;100.00;99105.84;5092472;28;20035;-81
2022/12/07 04:38:47;;;;;;;3.00;2.60;;;;;;;1.49;100.00;99090.56;5092223;28;20035;-81
2022/12/07 04:41:13;;;;;;;2.58;2.38;;;;;;;1.57;100.00;99110.94;5092431;28;20024;-81
2022/12/07 04:43:38;;;;;;;4.35;2.65;;;;;;;1.57;100.00;99104.09;5092287;28;20660;-81
2022/12/07 04:46:04;;;;;;;2.40;2.20;;;;;;;1.50;100.00;99094.81;5092336;28;20024;-81
2022/12/07 04:48:29;;;;;;;2.47;2.28;;;;;;;1.53;100.00;99097.31;5074119;28;20055;-81
2022/12/07 04:50:55;;;;;;;2.80;2.60;;;;;;;1.57;100.00;99090.41;5092706;28;20027;-81
2022/12/07 04:53:20;;;;;;;2.38;2.25;;;;;;;1.52;100.00;99095.66;5074029;28;20031;-81
2022/12/07 04:55:46;;;;;;;2.60;2.40;;;;;;;1.52;100.00;99100.78;5091979;28;20027;-81
2022/12/07 04:58:12;;;;;;;4.90;4.38;;;;;;;1.44;100.00;99092.38;5092046;28;20016;-81
2022/12/07 05:00:38;;;;;;;3.75;3.40;;;;;;;1.43;100.00;99086.41;5091973;28;20024;-82
2022/12/07 05:03:03;;;;;;;3.22;2.92;;;;;;;1.43;100.00;99086.41;5092506;28;20031;-81
2022/12/07 05:05:28;;;;;;;2.80;2.60;;;;;;;1.48;100.00;99094.00;5091325;28;20447;-82
2022/12/07 05:07:54;;;;;;;4.18;3.30;;;;;;;1.44;100.00;99077.81;5091894;28;20020;-81
2022/12/07 05:10:19;;;;;;;4.13;3.72;;;;;;;1.53;100.00;99091.34;5073844;28;20048;-81
2022/12/07 05:12:45;;;;;;;4.90;3.58;;;;;;;1.46;100.00;99076.06;5091619;28;20016;-81
2022/12/07 05:15:11;;;;;;;4.72;3.80;;;;;;;1.52;100.00;99087.94;5092170;28;20023;-81
2022/12/07 05:17:36;;;;;;;4.50;4.10;;;;;;;1.58;100.00;99092.94;5091880;28;20516;-81
2022/12/07 05:20:02;;;;;;;4.68;4.20;;;;;;;1.55;100.00;99087.03;5092064;28;20024;-81
2022/12/07 05:22:28;;;;;;;5.30;4.80;;;;;;;1.51;100.00;99075.97;5092027;28;20023;-82
2022/12/07 05:24:54;;;;;;;5.00;4.35;;;;;;;1.60;100.00;99096.34;5091830;28;20020;-82
2022/12/07 05:27:20;;;;;;;5.78;4.75;;;;;;;1.59;100.00;99081.78;5092114;28;20025;-82
2022/12/07 05:29:45;;;;;;;5.18;4.68;;;;;;;1.63;100.00;99087.72;5091537;28;20032;-81
2022/12/07 05:32:10;;;;;;;5.85;4.57;;;;;;;1.59;100.00;99078.38;5091948;28;20023;-82
2022/12/07 05:34:36;;;;;;;5.60;5.10;;;;;;;1.63;100.00;99074.88;5092140;28;20020;-81
2022/12/07 05:37:01;;;;;;;5.85;4.88;;;;;;;1.58;100.00;99069.84;5073608;28;20461;-81
2022/12/07 05:39:26;;;;;;;6.40;5.13;;;;;;;1.63;100.00;99074.88;5091801;28;20027;-81
2022/12/07 05:44:35;;;;;;;7.72;6.28;;;;;;;1.67;100.00;99091.91;5091738;28;20077;-81
2022/12/07 05:47:00;;;;;;;8.75;6.95;;;;;;;1.59;100.00;99076.66;5091762;28;20020;-83
2022/12/07 05:49:26;;;;;;;9.85;7.65;;;;;;;1.65;100.00;99084.25;5091740;28;20024;-83
2022/12/07 05:51:51;;;;;;;9.70;7.78;;;;;;;1.65;100.00;99084.25;5091798;28;20099;-82
2022/12/07 05:54:17;;;;;;;8.40;7.50;;;;;;;1.70;100.00;99084.16;5092356;28;20036;-82
2022/12/07 05:56:42;;;;;;;9.60;8.13;;;;;;;1.65;100.00;99076.56;5091651;28;20028;-82
2022/12/07 05:59:24;;;;;;;11.15;8.68;;;;;;;1.73;100.00;99090.09;5091894;28;20475;-82
2022/12/07 06:01:54;;;;;;;10.27;8.75;;;;;;;1.74;100.00;99088.38;5091661;28;20477;-83
2022/12/07 06:04:20;;;;;;;11.40;9.77;;;;;;;1.73;100.00;99079.81;5091353;28;20518;-83
2022/12/07 06:06:46;;;;;;;10.57;8.88;;;;;;;1.75;100.00;99079.78;5073090;28;20375;-82
2022/12/07 06:09:12;;;;;;;16.33;10.15;;;;;;;1.68;100.00;99073.06;5092014;28;20024;-82
2022/12/07 06:14:22;;;;;;;15.93;11.50;;;;;;;1.70;100.00;99077.31;5091716;28;20565;-82
2022/12/07 06:16:47;;;;;;;15.20;11.30;;;;;;;1.73;100.00;99084.97;5075041;28;20036;-82
2022/12/07 06:19:13;;;;;;;13.40;10.70;;;;;;;1.64;100.00;99068.88;5095087;28;20020;-82
2022/12/07 06:21:38;;;;;;;14.02;11.85;;;;;;;1.69;100.00;99085.91;5076495;28;20486;-82
2022/12/07 06:24:04;;;;;;;17.17;12.00;;;;;;;1.63;100.00;99074.88;5095306;28;20020;-82
2022/12/07 06:26:29;;;;;;;17.05;12.98;;;;;;;1.68;100.00;99088.47;5095101;28;20065;-82
2022/12/07 06:28:54;;;;;;;16.65;13.13;;;;;;;1.64;100.00;99079.13;5094845;28;20442;-82
2022/12/07 06:31:20;;;;;;;18.05;14.65;;;;;;;1.59;100.00;99074.09;5095011;28;20364;-82
2022/12/07 06:33:46;;;;;;;15.57;13.15;;;;;;;1.63;100.00;99082.59;5094586;28;20020;-82
2022/12/07 06:36:11;;;;;;;16.95;13.77;;;;;;;1.62;100.00;99076.63;5095133;28;20036;-82
2022/12/07 06:38:37;;;;;;;16.90;13.50;;;;;;;1.67;100.00;99081.66;5094692;28;20017;-82
2022/12/07 06:41:03;;;;;;;16.70;13.80;;;;;;;1.68;100.00;99085.91;5094681;28;20028;-82
2022/12/07 06:43:28;;;;;;;17.35;14.75;;;;;;;1.68;100.00;99091.03;5094736;28;20107;-82
2022/12/07 06:45:53;;;;;;;18.85;14.65;;;;;;;1.68;100.00;99089.31;5094906;28;20027;-82
2022/12/07 06:48:19;;;;;;;21.65;15.05;;;;;;;1.71;100.00;99088.41;5095062;28;20028;-82
2022/12/07 06:50:45;;;;;;;18.65;14.15;;;;;;;1.69;100.00;99100.47;5094244;28;20020;-82
2022/12/07 06:53:11;;;;;;;20.27;13.88;;;;;;;1.66;100.00;99092.81;5094592;28;20105;-82
2022/12/07 06:55:36;;;;;;;17.95;14.48;;;;;;;1.66;100.00;99093.66;5094569;28;20055;-82
2022/12/07 06:58:02;;;;;;;15.05;13.05;;;;;;;1.59;100.00;99075.81;5094244;28;20012;-82
2022/12/07 07:00:28;;;;;;;19.17;13.57;;;;;;;1.61;100.00;99079.22;5076244;28;20039;-82
2022/12/07 07:02:53;;;;;;;15.98;13.27;;;;;;;1.63;100.00;99080.88;5093782;28;20040;-82
2022/12/07 07:05:21;;;;;;;18.27;14.57;;;;;;;1.49;100.00;99067.47;5094110;28;20054;-82
2022/12/07 07:07:47;;;;;;;17.05;13.50;;;;;;;1.60;100.00;99092.91;5093923;28;20459;-82
2022/12/07 07:10:13;;;;;;;15.70;12.63;;;;;;;1.55;100.00;99085.28;5094287;28;20057;-82
2022/12/07 07:12:38;;;;;;;15.95;13.52;;;;;;;1.59;100.00;99086.09;5093981;28;20024;-82
2022/12/07 07:15:04;;;;;;;17.08;12.88;;;;;;;1.54;100.00;99087.91;5094060;28;20016;-82
2022/12/07 07:17:29;;;;;;;16.80;13.63;;;;;;;1.43;100.00;99075.25;5075867;28;20352;-82
2022/12/07 07:19:54;;;;;;;20.50;15.25;;;;;;;1.44;100.00;99076.97;5094023;28;20023;-82
2022/12/07 07:22:19;;;;;;;17.52;13.63;;;;;;;1.37;100.00;99080.53;5075977;28;20027;-82
2022/12/07 07:24:45;;;;;;;19.23;13.88;;;;;;;1.34;100.00;99089.09;5093750;28;20098;-82
2022/12/07 07:27:10;;;;;;;18.02;14.63;;;;;;;1.25;100.00;99079.03;5093345;28;20358;-82
2022/12/07 07:29:36;;;;;;;17.55;13.93;;;;;;;1.31;100.00;99085.78;5093408;28;20485;-82
2022/12/07 07:32:01;;;;;;;19.55;14.57;;;;;;;1.29;100.00;99090.06;5093437;28;20024;-82
2022/12/07 07:34:26;;;;;;;19.13;14.75;;;;;;;1.27;100.00;99084.97;5093533;28;20016;-82
2022/12/07 07:36:52;;;;;;;17.23;14.30;;;;;;;1.29;100.00;99085.78;5093447;28;20020;-82
2022/12/07 07:39:17;;;;;;;20.25;15.40;;;;;;;1.28;100.00;99073.00;5093666;28;20031;-82
2022/12/07 07:41:42;;;;;;;21.70;16.27;;;;;;;1.20;100.00;99068.84;5093424;28;20047;-82
2022/12/07 07:44:07;;;;;;;17.40;14.23;;;;;;;1.25;100.00;99085.00;5093604;28;20008;-82
2022/12/07 07:46:33;;;;;;;17.63;12.73;;;;;;;1.20;100.00;99078.25;5093477;28;20024;-82
2022/12/07 07:48:58;;;;;;;19.35;12.73;;;;;;;1.21;100.00;99085.91;5093108;28;20492;-82
2022/12/07 07:51:23;;;;;;;15.85;12.88;;;;;;;1.22;100.00;99082.50;5093888;28;20031;-82
2022/12/07 07:53:49;;;;;;;15.02;12.30;;;;;;;1.13;100.00;99068.97;5093210;28;20085;-82
2022/12/07 07:56:14;;;;;;;15.27;12.50;;;;;;;1.15;100.00;99073.22;5093430;28;20024;-82
2022/12/07 07:58:39;;;;;;;16.30;13.15;;;;;;;1.15;100.00;99068.09;5093388;28;20023;-82
2022/12/07 08:01:06;;;;;;;17.63;13.50;;;;;;;1.25;100.00;99089.28;5092705;28;20028;-82
2022/12/07 08:03:32;;;;;;;17.25;13.48;;;;;;;1.27;100.00;99097.81;5093006;28;20012;-82
2022/12/07 08:05:57;;;;;;;15.77;13.30;;;;;;;1.22;100.00;99086.75;5093254;28;20103;-82
2022/12/07 08:08:23;;;;;;;17.08;12.98;;;;;;;1.25;100.00;99084.16;5093152;28;20103;-82
2022/12/07 08:10:48;;;;;;;17.73;14.05;;;;;;;1.31;100.00;99096.03;5092905;28;20020;-82
2022/12/07 08:13:16;;;;;;;18.55;13.20;;;;;;;1.33;100.00;99095.13;5092917;28;20466;-82
2022/12/07 08:15:46;;;;;;;20.40;13.10;;;;;;;1.36;100.00;99092.50;5074719;28;20024;-82
2022/12/07 08:18:13;;;;;;;18.13;14.50;;;;;;;1.40;100.00;99090.75;5092765;28;20069;-82
2022/12/07 08:20:39;;;;;;;17.55;13.52;;;;;;;1.37;100.00;99090.78;5092974;28;20038;-82
2022/12/07 08:23:06;;;;;;;17.67;13.00;;;;;;;1.32;100.00;99080.59;5092609;28;20016;-82
2022/12/07 08:25:32;;;;;;;19.85;13.70;;;;;;;1.37;100.00;99086.50;5092771;28;20119;-82
2022/12/07 08:27:58;;;;;;;16.13;12.75;;;;;;;1.43;100.00;99077.81;5074090;28;20038;-82
2022/12/07 08:30:23;;;;;;;17.67;13.32;;;;;;;1.47;100.00;99066.63;5092636;28;20028;-82
2022/12/07 08:32:49;;;;;;;19.00;13.13;;;;;;;1.55;100.00;99064.75;5092102;28;20020;-82
2022/12/07 08:35:15;;;;;;;21.13;14.85;;;;;;;1.63;100.00;99073.16;5092657;28;20066;-82
2022/12/07 08:37:40;;;;;;;20.75;14.40;;;;;;;1.79;100.00;99075.44;5092694;28;20104;-82
2022/12/07 08:40:07;;;;;;;21.42;15.15;;;;;;;1.87;100.00;99061.56;5092159;28;20115;-82
2022/12/07 08:42:39;;;;;;;23.45;17.02;;;;;;;1.97;100.00;99069.91;5092661;28;20524;-82
2022/12/07 08:45:13;;;;;;;24.50;17.85;;;;;;;1.96;100.00;99055.38;5073808;28;20038;-82
2022/12/07 08:48:04;;;;;;;24.95;17.17;;;;;;;2.08;100.00;99060.25;5074310;28;20062;-82
2022/12/07 08:50:32;;;;;;;25.15;18.50;;;;;;;2.15;100.00;99060.94;5013017;28;20152;-82
2022/12/07 08:52:58;;;;;;;32.67;23.58;;;;;;;2.06;100.00;99054.28;5029214;28;20045;-82
2022/12/07 08:55:24;;;;;;;70.50;51.25;;;;;;;2.08;100.00;99054.28;5029694;28;20394;-82
2022/12/07 08:57:50;;;;;;;81.50;58.20;;;;;;;2.09;100.00;99055.97;5029354;28;20029;-82
2022/12/07 09:00:19;;;;;;;78.82;56.58;;;;;;;2.16;100.00;99062.66;5029682;28;20104;-82
2022/12/07 09:02:45;;;;;;;122.45;93.47;;;;;;;2.07;100.00;99050.88;5029514;28;20049;-82
2022/12/07 09:05:12;;;;;;;114.07;94.05;;;;;;;2.22;100.00;99059.94;5029978;28;20039;-82
2022/12/07 09:07:38;;;;;;;52.85;42.42;;;;;;;2.14;100.00;99043.84;5029738;28;20037;-82
2022/12/07 09:10:04;;;;;;;27.52;20.88;;;;;;;2.10;100.00;99057.66;5029361;28;20420;-82
2022/12/07 09:12:30;;;;;;;27.17;20.58;;;;;;;2.13;100.00;99037.03;5029478;28;20449;-82
2022/12/07 09:14:55;;;;;;;24.77;19.67;;;;;;;2.18;100.00;99045.47;5029243;28;20029;-82
2022/12/07 09:17:21;;;;;;;23.98;18.23;;;;;;;2.10;100.00;99042.22;5012860;28;20060;-82
2022/12/07 09:19:46;;;;;;;24.90;18.58;;;;;;;2.16;100.00;99050.66;5029398;28;20477;-82
2022/12/07 09:22:11;;;;;;;20.67;15.57;;;;;;;2.22;100.00;99047.94;5029422;28;20587;-82
2022/12/07 09:24:37;;;;;;;24.50;16.38;;;;;;;2.19;100.00;99037.75;5029394;28;20048;-82
2022/12/07 09:27:02;;;;;;;19.08;14.45;;;;;;;2.01;100.00;99027.88;5046079;28;20043;-82
2022/12/07 09:29:27;;;;;;;18.63;15.07;;;;;;;2.19;100.00;99047.16;5073486;28;20028;-82
2022/12/07 09:31:53;;;;;;;21.17;15.43;;;;;;;2.16;100.00;99030.13;5091697;28;20056;-82
2022/12/07 09:34:18;;;;;;;19.55;15.18;;;;;;;2.12;100.00;99030.22;5092094;28;20097;-82
2022/12/07 09:36:44;;;;;;;19.67;14.13;;;;;;;2.05;100.00;99011.50;5073575;28;20027;-82
2022/12/07 09:39:10;;;;;;;21.88;16.58;;;;;;;2.05;100.00;99003.81;5091405;28;20024;-82
2022/12/07 09:41:41;;;;;;;26.35;17.52;;;;;;;2.08;100.00;99008.03;5091767;28;20425;-82
2022/12/07 09:44:12;;;;;;;19.73;15.35;;;;;;;1.97;100.00;98998.84;5091692;28;20249;-82
2022/12/07 09:46:40;;;;;;;23.35;16.38;;;;;;;2.14;100.00;99005.31;5091840;28;20462;-82
2022/12/07 09:49:12;;;;;;;21.45;15.32;;;;;;;2.17;100.00;98997.56;5091570;28;20042;-82
2022/12/07 09:51:37;;;;;;;20.70;15.05;;;;;;;2.19;100.00;98998.34;5093438;28;20028;-82
2022/12/07 09:54:02;;;;;;;20.27;14.52;;;;;;;2.24;100.00;98988.84;5095098;28;20348;-82
2022/12/07 09:56:30;;;;;;;21.00;14.77;;;;;;;2.38;100.00;98994.47;5095630;28;20057;-82
2022/12/07 09:59:01;;;;;;;16.02;13.00;;;;;;;2.32;100.00;98991.19;5095414;28;20031;-82
2022/12/07 10:01:30;;;;;;;16.88;13.88;;;;;;;2.33;100.00;99000.63;5077233;28;20036;-82
2022/12/07 10:04:05;;;;;;;17.45;13.38;;;;;;;2.36;100.00;98993.69;5095310;28;20020;-82
2022/12/07 10:06:30;;;;;;;16.25;13.15;;;;;;;2.25;100.00;98985.38;5095305;28;20020;-82
2022/12/07 10:08:55;;;;;;;16.17;12.85;;;;;;;2.22;100.00;98985.44;5095329;28;20524;-82
2022/12/07 10:11:21;;;;;;;15.50;12.30;;;;;;;2.23;100.00;98982.84;5095249;28;20106;-82
2022/12/07 10:13:53;;;;;;;15.68;12.02;;;;;;;2.21;100.00;98970.91;5095233;28;20020;-82
2022/12/07 10:16:24;;;;;;;20.15;14.75;;;;;;;2.18;100.00;98986.38;5095221;28;20038;-82
2022/12/07 10:18:50;;;;;;;23.63;16.73;;;;;;;2.09;100.00;98971.19;5095240;28;20024;-82
2022/12/07 10:21:23;;;;;;;18.13;13.52;;;;;;;2.15;100.00;98987.31;5095452;28;20050;-82
2022/12/07 10:24:17;;;;;;;27.27;20.52;;;;;;;2.03;100.00;98955.94;5076807;28;20081;-82
2022/12/07 10:26:51;;;;;;;77.75;52.10;;;;;;;1.98;100.00;98963.72;5095045;28;20116;-82
2022/12/07 10:29:32;;;;;;;34.67;27.85;;;;;;;2.06;100.00;98968.69;5094942;28;20031;-82
2022/12/07 10:32:03;;;;;;;27.23;24.27;;;;;;;2.06;100.00;98972.09;5076598;28;20028;-82
2022/12/07 10:34:32;;;;;;;24.67;20.38;;;;;;;2.00;100.00;98969.69;5094667;28;20359;-82
2022/12/07 10:37:12;;;;;;;18.48;15.27;;;;;;;1.97;100.00;98956.91;5094563;28;20050;-82
2022/12/07 10:39:51;;;;;;;20.75;16.65;;;;;;;1.96;100.00;98962.94;5094798;28;20074;-82
2022/12/07 10:42:22;;;;;;;21.40;15.18;;;;;;;1.99;100.00;98973.97;5094728;28;20558;-82
2022/12/07 10:44:50;;;;;;;15.50;12.75;;;;;;;1.96;100.00;98957.78;5076545;28;20053;-82
2022/12/07 10:47:36;;;;;;;15.13;11.90;;;;;;;2.04;100.00;98979.00;5094493;28;20035;-82
2022/12/07 10:50:26;;;;;;;14.85;11.52;;;;;;;1.86;100.00;98948.63;5094384;28;20058;-82
2022/12/07 10:53:13;;;;;;;13.68;10.77;;;;;;;1.98;100.00;98969.72;5094636;28;20038;-82
2022/12/07 10:56:19;;;;;;;16.58;11.88;;;;;;;2.00;100.00;98970.53;5094604;28;20024;-82
2022/12/07 10:59:06;;;;;;;14.30;12.43;;;;;;;1.97;100.00;98968.03;5094358;28;20016;-82
2022/12/07 11:01:41;;;;;;;15.32;12.05;;;;;;;2.02;100.00;98965.34;5094208;28;20076;-82
2022/12/07 11:04:40;;;;;;;15.43;12.93;;;;;;;2.07;100.00;98960.97;5093074;28;20081;-82
2022/12/07 11:07:33;;;;;;;15.50;11.25;;;;;;;2.05;100.00;98957.56;5076003;28;20031;-82
2022/12/07 11:10:21;;;;;;;16.08;13.73;;;;;;;2.08;100.00;98964.38;5094048;28;20477;-82
2022/12/07 11:13:04;;;;;;;18.58;14.98;;;;;;;2.12;100.00;98963.44;4995302;28;20033;-82
2022/12/07 11:15:32;;;;;;;15.10;12.10;;;;;;;2.11;100.00;98956.59;5011772;28;20497;-82
2022/12/07 11:19:08;;;;;;;14.73;11.82;;;;;;;2.09;100.00;98955.78;5011413;28;20042;-82
2022/12/07 11:21:55;;;;;;;12.55;10.70;;;;;;;2.10;100.00;98953.16;4934187;29;20114;-82
2022/12/07 11:24:27;;;;;;;14.95;11.70;;;;;;;2.07;100.00;98952.44;4934057;29;20027;-82
2022/12/07 11:27:14;;;;;;;15.70;10.80;;;;;;;2.07;100.00;98955.00;4934049;29;20040;-82
2022/12/07 11:29:53;;;;;;;13.50;11.43;;;;;;;2.08;100.00;98947.25;4934301;29;20031;-82
2022/12/07 11:32:49;;;;;;;14.70;11.95;;;;;;;2.06;100.00;98954.13;4933963;29;20044;-82
2022/12/07 11:35:29;;;;;;;17.90;12.65;;;;;;;2.08;100.00;98946.41;4933761;29;20103;-82
2022/12/07 11:38:01;;;;;;;16.73;12.30;;;;;;;2.09;100.00;98938.66;4933734;29;20051;-82
2022/12/07 11:40:30;;;;;;;14.65;12.13;;;;;;;1.94;100.00;98914.19;4933847;29;20034;-81
2022/12/07 11:43:04;;;;;;;12.98;10.77;;;;;;;2.08;100.00;98939.53;4933558;29;20081;-82